Accueil
METAR-TAF:

METAR-TAF

Aéroports :

Trévise, Italie

latitude: 45-41N, longitude: 012-06E, altitude: 45 m

Observation

Le bulletin a été fait il y a 1 heure et 17 minutes, à 20:55 UTC
Vent calme
Température 27°C
Humidité 70%
Pression 1015 hPa
Visibilité 10 km ou plus
pas de nuages en-dessous de 1500 mètres et pas de cumulonimbus.

METAR: LIPS 212055Z 00000KT CAVOK 27/21 Q1015 RMK FEW FEW120 VIS MIN 9999 WIND THR26 00000KT WIND THR08 00000KT BLU

Heure: 00:12 (22:12 UTC)

Prévision

Le bulletin a été fait il y a 2 heures et 12 minutes, à 20:00 UTC
Prévision valable du 21 à 21 UTC au 22 à 06 UTC
Vent 5 kt de direction variable
Visibilité 10 km ou plus
pas de nuages en-dessous de 1500 mètres et pas de cumulonimbus.

TAF: LIPS 212000Z 2121/2206 VRB05KT CAVOK

Observations et prévisions météorologiques de plus de 4000 aéroports (messages METAR et TAF).

Les stations disponibles sont représentées par des disques jaunes et rouges sur la carte.

Passer la souris dessus pour voir le nom de la station.

Cliquer dessus pour voir les observations et prévisions météorologiques.

Pour changer de carte: cliquez sur les boutons verts avec une croix noire pour zoomer, sur le bouton vert avec un tiret pour effectuer un zoom arrière, ou sur les flèches vertes pour les cartes adjacentes.


METAR-TAF: